RYR3MK LIMF-LEZL
Flight info
| Callsign | RYR3MK |
|---|---|
| Flight time | N/A |
| Altitude | 35000 |
| Route | LAGEN DCT GEKBA DCT VAMTU DCT KOLON DCT GANGU DCT PADKO DCT DIVKO DCT NILDU DCT NENDA DCT BCN DCT RODRA DCT PEXOT DCT EBROX DCT LOTOS DCT TORDU DCT DIKUT DCT SOPET DCT VLC DCT SERRA DCT ASTRO DCT POBOS DCT XEBAR DCT YES DCT BLN |
| Aircraft | B738/M-SDE2E3FGHIRWXY/LB1 |
Departure
| Time | N/A |
|---|---|
| Airport | Turin Airport (LIMF) |
Arrival
| Time | 2026-03-25 09:24 |
|---|---|
| Airport | Seville Airport (LEZL) |
| Time | Latitude | Longitude | Altitude | Speed | Heading |
|---|---|---|---|---|---|
| 2026-03-25 08:52 | 38.30864 | -2.67977 | 35229 ft | 514 kts | 258° |
| 2026-03-25 08:52 | 38.29431 | -2.76887 | 35218 ft | 514 kts | 258° |
| 2026-03-25 08:53 | 38.27983 | -2.85788 | 35231 ft | 514 kts | 258° |
| 2026-03-25 08:53 | 38.26529 | -2.94698 | 35218 ft | 514 kts | 258° |
| 2026-03-25 08:54 | 38.25070 | -3.03611 | 35222 ft | 514 kts | 258° |
| 2026-03-25 08:54 | 38.23604 | -3.12522 | 35221 ft | 514 kts | 257° |
| 2026-03-25 08:55 | 38.22143 | -3.21363 | 35220 ft | 514 kts | 257° |
| 2026-03-25 08:55 | 38.20666 | -3.30259 | 35220 ft | 514 kts | 257° |
| 2026-03-25 08:56 | 38.19183 | -3.39139 | 35212 ft | 514 kts | 257° |
| 2026-03-25 08:56 | 38.17693 | -3.48026 | 35213 ft | 514 kts | 257° |
| 2026-03-25 08:57 | 38.16198 | -3.56900 | 35207 ft | 514 kts | 257° |
| 2026-03-25 08:57 | 38.15442 | -3.61368 | 34726 ft | 520 kts | 257° |
| 2026-03-25 08:57 | 38.14586 | -3.65835 | 34136 ft | 520 kts | 253° |
| 2026-03-25 08:58 | 38.13563 | -3.70241 | 33441 ft | 520 kts | 251° |
| 2026-03-25 08:58 | 38.12457 | -3.74607 | 32875 ft | 518 kts | 251° |
| 2026-03-25 08:58 | 38.11332 | -3.78939 | 32429 ft | 514 kts | 251° |
| 2026-03-25 08:58 | 38.10223 | -3.83233 | 31952 ft | 510 kts | 251° |
| 2026-03-25 08:59 | 38.09137 | -3.87507 | 31515 ft | 506 kts | 252° |
| 2026-03-25 08:59 | 38.08090 | -3.91690 | 31072 ft | 502 kts | 252° |
| 2026-03-25 08:59 | 38.07044 | -3.95906 | 30636 ft | 499 kts | 252° |
| 2026-03-25 08:59 | 38.06012 | -4.00090 | 30185 ft | 495 kts | 253° |
| 2026-03-25 09:00 | 38.04987 | -4.04247 | 29663 ft | 492 kts | 253° |
| 2026-03-25 09:00 | 38.03970 | -4.08362 | 29175 ft | 488 kts | 253° |
| 2026-03-25 09:00 | 38.02959 | -4.12445 | 28716 ft | 483 kts | 253° |
| 2026-03-25 09:00 | 38.01952 | -4.16498 | 28258 ft | 479 kts | 252° |
| 2026-03-25 09:01 | 38.00958 | -4.20493 | 27798 ft | 474 kts | 252° |
| 2026-03-25 09:01 | 37.99966 | -4.24467 | 27356 ft | 470 kts | 252° |
| 2026-03-25 09:01 | 37.98983 | -4.28402 | 26908 ft | 466 kts | 252° |
| 2026-03-25 09:01 | 37.98006 | -4.32304 | 26470 ft | 463 kts | 252° |
| 2026-03-25 09:02 | 37.97037 | -4.36171 | 26033 ft | 459 kts | 252° |
| 2026-03-25 09:02 | 37.96072 | -4.40015 | 25596 ft | 456 kts | 252° |
| 2026-03-25 09:02 | 37.95111 | -4.43837 | 25167 ft | 453 kts | 252° |
| 2026-03-25 09:02 | 37.94157 | -4.47626 | 24720 ft | 450 kts | 252° |
| 2026-03-25 09:03 | 37.93208 | -4.51389 | 24287 ft | 447 kts | 252° |
| 2026-03-25 09:03 | 37.92263 | -4.55130 | 23835 ft | 445 kts | 252° |
| 2026-03-25 09:03 | 37.91321 | -4.58852 | 23321 ft | 443 kts | 252° |
| 2026-03-25 09:03 | 37.90385 | -4.62546 | 22862 ft | 439 kts | 252° |
| 2026-03-25 09:04 | 37.89454 | -4.66215 | 22409 ft | 435 kts | 252° |
| 2026-03-25 09:04 | 37.88547 | -4.69787 | 21980 ft | 430 kts | 252° |
| 2026-03-25 09:04 | 37.87634 | -4.73375 | 21547 ft | 424 kts | 252° |
| 2026-03-25 09:04 | 37.86742 | -4.76880 | 21116 ft | 412 kts | 252° |
| 2026-03-25 09:05 | 37.85874 | -4.80284 | 20713 ft | 403 kts | 252° |
| 2026-03-25 09:05 | 37.85017 | -4.83638 | 20359 ft | 400 kts | 251° |
| 2026-03-25 09:05 | 37.84240 | -4.87006 | 19948 ft | 397 kts | 256° |
| 2026-03-25 09:05 | 37.83666 | -4.90405 | 19554 ft | 394 kts | 259° |
| 2026-03-25 09:06 | 37.83174 | -4.93810 | 19153 ft | 392 kts | 260° |
| 2026-03-25 09:06 | 37.82703 | -4.97190 | 18764 ft | 390 kts | 260° |
| 2026-03-25 09:06 | 37.82225 | -5.00558 | 18337 ft | 388 kts | 259° |
| 2026-03-25 09:06 | 37.81736 | -5.03906 | 17892 ft | 386 kts | 259° |
| 2026-03-25 09:07 | 37.81239 | -5.07223 | 17473 ft | 383 kts | 259° |
| 2026-03-25 09:07 | 37.80737 | -5.10509 | 17071 ft | 379 kts | 259° |
| 2026-03-25 09:07 | 37.80233 | -5.13772 | 16671 ft | 376 kts | 258° |
| 2026-03-25 09:07 | 37.79730 | -5.17005 | 16277 ft | 373 kts | 258° |
| 2026-03-25 09:08 | 37.79398 | -5.19128 | 16029 ft | 371 kts | 258° |
| 2026-03-25 09:08 | 37.78899 | -5.22315 | 15639 ft | 368 kts | 258° |
| 2026-03-25 09:08 | 37.78409 | -5.25436 | 15243 ft | 357 kts | 258° |
| 2026-03-25 09:08 | 37.77930 | -5.28487 | 14886 ft | 352 kts | 258° |
| 2026-03-25 09:09 | 37.77455 | -5.31500 | 14523 ft | 350 kts | 258° |
| 2026-03-25 09:09 | 37.76978 | -5.34525 | 14153 ft | 349 kts | 258° |
| 2026-03-25 09:09 | 37.76505 | -5.37518 | 13761 ft | 347 kts | 258° |
| 2026-03-25 09:09 | 37.76031 | -5.40508 | 13351 ft | 346 kts | 258° |
| 2026-03-25 09:10 | 37.75560 | -5.43478 | 12969 ft | 344 kts | 258° |
| 2026-03-25 09:10 | 37.75091 | -5.46432 | 12594 ft | 342 kts | 258° |
| 2026-03-25 09:10 | 37.74625 | -5.49360 | 12223 ft | 340 kts | 258° |
| 2026-03-25 09:10 | 37.74160 | -5.52277 | 11861 ft | 337 kts | 258° |
| 2026-03-25 09:11 | 37.73698 | -5.55175 | 11493 ft | 335 kts | 259° |
| 2026-03-25 09:11 | 37.73237 | -5.58052 | 11136 ft | 334 kts | 259° |
| 2026-03-25 09:11 | 37.72779 | -5.60918 | 10784 ft | 332 kts | 258° |
| 2026-03-25 09:11 | 37.72327 | -5.63735 | 10621 ft | 323 kts | 258° |
| 2026-03-25 09:12 | 37.71892 | -5.66442 | 10476 ft | 314 kts | 259° |
| 2026-03-25 09:12 | 37.71457 | -5.69140 | 10340 ft | 305 kts | 259° |
| 2026-03-25 09:12 | 37.71045 | -5.71693 | 10211 ft | 297 kts | 258° |
| 2026-03-25 09:12 | 37.70635 | -5.74237 | 9943 ft | 295 kts | 259° |
| 2026-03-25 09:13 | 37.70227 | -5.76767 | 9660 ft | 293 kts | 259° |
| 2026-03-25 09:13 | 37.69819 | -5.79287 | 9354 ft | 292 kts | 259° |
| 2026-03-25 09:13 | 37.69414 | -5.81787 | 9074 ft | 290 kts | 259° |
| 2026-03-25 09:13 | 37.69010 | -5.84280 | 8789 ft | 289 kts | 259° |
| 2026-03-25 09:14 | 37.68607 | -5.86767 | 8497 ft | 288 kts | 259° |
| 2026-03-25 09:14 | 37.68204 | -5.89241 | 8206 ft | 288 kts | 259° |
| 2026-03-25 09:14 | 37.67801 | -5.91714 | 7931 ft | 287 kts | 259° |
| 2026-03-25 09:14 | 37.67402 | -5.94162 | 7619 ft | 284 kts | 259° |
| 2026-03-25 09:15 | 37.67005 | -5.96596 | 7368 ft | 282 kts | 259° |
| 2026-03-25 09:15 | 37.66605 | -5.99023 | 7083 ft | 283 kts | 259° |
| 2026-03-25 09:15 | 37.66100 | -6.01420 | 6762 ft | 284 kts | 244° |
| 2026-03-25 09:15 | 37.64879 | -6.03353 | 6415 ft | 285 kts | 218° |
| 2026-03-25 09:16 | 37.63264 | -6.04828 | 6029 ft | 286 kts | 213° |
| 2026-03-25 09:16 | 37.61636 | -6.06218 | 5747 ft | 279 kts | 212° |
| 2026-03-25 09:16 | 37.60043 | -6.07580 | 5436 ft | 273 kts | 212° |
| 2026-03-25 09:17 | 37.56977 | -6.10242 | 4872 ft | 266 kts | 213° |
| 2026-03-25 09:17 | 37.55462 | -6.11573 | 4637 ft | 264 kts | 212° |
| 2026-03-25 09:17 | 37.53955 | -6.12893 | 4377 ft | 264 kts | 213° |
| 2026-03-25 09:17 | 37.52439 | -6.14183 | 4115 ft | 262 kts | 205° |
| 2026-03-25 09:18 | 37.50719 | -6.14723 | 3870 ft | 253 kts | 174° |
| 2026-03-25 09:18 | 37.49015 | -6.14364 | 3700 ft | 246 kts | 162° |
| 2026-03-25 09:18 | 37.47424 | -6.13801 | 3588 ft | 228 kts | 161° |
| 2026-03-25 09:18 | 37.45955 | -6.13269 | 3473 ft | 212 kts | 160° |
| 2026-03-25 09:19 | 37.44594 | -6.12793 | 3316 ft | 202 kts | 160° |
| 2026-03-25 09:19 | 37.43226 | -6.12298 | 2976 ft | 203 kts | 156° |
| 2026-03-25 09:19 | 37.42187 | -6.11282 | 2769 ft | 185 kts | 113° |
| 2026-03-25 09:19 | 37.41988 | -6.09752 | 2664 ft | 174 kts | 92° |
| 2026-03-25 09:20 | 37.41828 | -6.08245 | 2491 ft | 171 kts | 98° |
| 2026-03-25 09:20 | 37.41758 | -6.06754 | 2297 ft | 167 kts | 91° |
| 2026-03-25 09:20 | 37.41764 | -6.05324 | 2176 ft | 160 kts | 90° |
| 2026-03-25 09:20 | 37.41769 | -6.03918 | 2042 ft | 162 kts | 90° |
| 2026-03-25 09:21 | 37.41770 | -6.02491 | 1820 ft | 164 kts | 91° |
| 2026-03-25 09:21 | 37.41774 | -6.01087 | 1616 ft | 159 kts | 90° |
| 2026-03-25 09:21 | 37.41776 | -5.99732 | 1419 ft | 151 kts | 90° |
| 2026-03-25 09:21 | 37.41778 | -5.98466 | 1233 ft | 140 kts | 89° |
| 2026-03-25 09:22 | 37.41780 | -5.97209 | 1035 ft | 148 kts | 88° |
| 2026-03-25 09:22 | 37.41783 | -5.95905 | 828 ft | 153 kts | 90° |
| 2026-03-25 09:22 | 37.41784 | -5.94569 | 639 ft | 153 kts | 89° |
| 2026-03-25 09:22 | 37.41791 | -5.93233 | 422 ft | 150 kts | 88° |
| 2026-03-25 09:23 | 37.41791 | -5.91966 | 246 ft | 144 kts | 93° |
| 2026-03-25 09:23 | 37.41785 | -5.90686 | 118 ft | 147 kts | 90° |
| 2026-03-25 09:23 | 37.41795 | -5.89498 | 104 ft | 118 kts | 90° |
| 2026-03-25 09:23 | 37.41795 | -5.88735 | 107 ft | 58 kts | 89° |
| 2026-03-25 09:24 | 37.41796 | -5.88484 | 110 ft | 11 kts | 88° |
| 2026-03-25 09:24 | 37.41797 | -5.88320 | 108 ft | 31 kts | 90° |
| 2026-03-25 09:24 | 37.41799 | -5.87948 | 106 ft | 49 kts | 88° |
| 2026-03-25 09:24 | 37.41802 | -5.87575 | 104 ft | 20 kts | 88° |
| 2026-03-25 09:25 | 37.41868 | -5.87436 | 102 ft | 19 kts | 27° |
| 2026-03-25 09:25 | 37.41969 | -5.87505 | 101 ft | 19 kts | 292° |
| 2026-03-25 09:25 | 37.41987 | -5.87660 | 103 ft | 18 kts | 266° |
| 2026-03-25 09:25 | 37.41982 | -5.87815 | 103 ft | 17 kts | 269° |
| 2026-03-25 09:26 | 37.41981 | -5.87963 | 103 ft | 17 kts | 269° |
| 2026-03-25 09:26 | 37.41981 | -5.88106 | 107 ft | 16 kts | 270° |
| 2026-03-25 09:26 | 37.41981 | -5.88243 | 110 ft | 15 kts | 270° |
| 2026-03-25 09:26 | 37.41981 | -5.88376 | 109 ft | 15 kts | 270° |
| 2026-03-25 09:27 | 37.41982 | -5.88503 | 109 ft | 15 kts | 270° |
| 2026-03-25 09:27 | 37.41982 | -5.88634 | 111 ft | 15 kts | 270° |
| 2026-03-25 09:27 | 37.41982 | -5.88782 | 109 ft | 21 kts | 270° |
| 2026-03-25 09:27 | 37.41982 | -5.88980 | 104 ft | 23 kts | 270° |
| 2026-03-25 09:28 | 37.41982 | -5.89180 | 103 ft | 23 kts | 270° |
| 2026-03-25 09:28 | 37.41997 | -5.89363 | 100 ft | 20 kts | 300° |
| 2026-03-25 09:28 | 37.42086 | -5.89494 | 101 ft | 19 kts | 313° |
| 2026-03-25 09:28 | 37.42180 | -5.89613 | 99 ft | 16 kts | 314° |
| 2026-03-25 09:29 | 37.42245 | -5.89697 | 99 ft | 13 kts | 314° |
| 2026-03-25 09:29 | 37.42225 | -5.89796 | 100 ft | 13 kts | 230° |
| 2026-03-25 09:29 | 37.42155 | -5.89859 | 103 ft | 13 kts | 175° |
| 2026-03-25 09:29 | 37.42088 | -5.89795 | 102 ft | 10 kts | 136° |
| 2026-03-25 09:30 | 37.42098 | -5.89728 | 100 ft | 9 kts | 43° |
| 2026-03-25 09:30 | 37.42119 | -5.89724 | 100 ft | 2 kts | 334° |
| 2026-03-25 09:30 | 37.42134 | -5.89735 | 100 ft | 3 kts | 323° |
| 2026-03-25 09:30 | 37.42151 | -5.89756 | 100 ft | 4 kts | 315° |
| 2026-03-25 09:31 | 37.42161 | -5.89768 | 99 ft | 0 kts | 315° |